sensor_id;sensor_type;location;lat;lon;timestamp;pressure;altitude;pressure_sealevel;temperature;humidity
49377;BME280;35253;34.688;33.040;2023-04-10T00:02:21;100499.63;;;20.53;100.00
49377;BME280;35253;34.688;33.040;2023-04-10T00:04:47;100487.94;;;20.52;100.00
49377;BME280;35253;34.688;33.040;2023-04-10T00:07:13;100470.53;;;20.63;100.00
49377;BME280;35253;34.688;33.040;2023-04-10T00:09:39;100485.38;;;20.51;100.00
49377;BME280;35253;34.688;33.040;2023-04-10T00:12:05;100483.41;;;20.61;100.00
49377;BME280;35253;34.688;33.040;2023-04-10T00:14:31;100466.78;;;20.56;100.00
49377;BME280;35253;34.688;33.040;2023-04-10T00:16:57;100454.44;;;20.53;100.00
49377;BME280;35253;34.688;33.040;2023-04-10T00:19:22;100437.84;;;20.56;100.00
49377;BME280;35253;34.688;33.040;2023-04-10T00:21:48;100423.84;;;20.69;100.00
49377;BME280;35253;34.688;33.040;2023-04-10T00:24:14;100451.19;;;20.58;100.00
49377;BME280;35253;34.688;33.040;2023-04-10T00:26:40;100469.16;;;20.59;100.00
49377;BME280;35253;34.688;33.040;2023-04-10T00:29:05;100467.31;;;20.59;100.00
49377;BME280;35253;34.688;33.040;2023-04-10T00:31:32;100460.78;;;20.70;100.00
49377;BME280;35253;34.688;33.040;2023-04-10T00:33:58;100460.25;;;20.66;100.00
49377;BME280;35253;34.688;33.040;2023-04-10T00:36:23;100445.53;;;20.69;100.00
49377;BME280;35253;34.688;33.040;2023-04-10T00:38:51;100426.22;;;20.72;100.00
49377;BME280;35253;34.688;33.040;2023-04-10T00:41:16;100436.59;;;20.77;100.00
49377;BME280;35253;34.688;33.040;2023-04-10T00:43:43;100453.31;;;20.72;100.00
49377;BME280;35253;34.688;33.040;2023-04-10T00:46:09;100455.66;;;20.67;100.00
49377;BME280;35253;34.688;33.040;2023-04-10T00:48:36;100441.97;;;20.68;100.00
49377;BME280;35253;34.688;33.040;2023-04-10T00:51:03;100435.06;;;20.74;100.00
49377;BME280;35253;34.688;33.040;2023-04-10T00:53:30;100425.19;;;20.65;100.00
49377;BME280;35253;34.688;33.040;2023-04-10T00:55:56;100416.53;;;20.61;100.00
49377;BME280;35253;34.688;33.040;2023-04-10T00:58:22;100405.84;;;20.60;100.00
49377;BME280;35253;34.688;33.040;2023-04-10T01:00:47;100398.38;;;20.54;100.00
49377;BME280;35253;34.688;33.040;2023-04-10T01:03:15;100394.84;;;20.53;100.00
49377;BME280;35253;34.688;33.040;2023-04-10T01:08:42;100388.59;;;20.61;100.00
49377;BME280;35253;34.688;33.040;2023-04-10T01:11:40;100353.38;;;20.61;100.00
49377;BME280;35253;34.688;33.040;2023-04-10T01:22:35;100348.81;;;20.61;100.00
49377;BME280;35253;34.688;33.040;2023-04-10T01:25:37;100348.38;;;20.74;100.00
49377;BME280;35253;34.688;33.040;2023-04-10T01:28:46;100340.03;;;20.67;100.00
49377;BME280;35253;34.688;33.040;2023-04-10T01:32:00;100339.34;;;20.65;100.00
49377;BME280;35253;34.688;33.040;2023-04-10T01:34:09;100330.03;;;20.68;100.00
49377;BME280;35253;34.688;33.040;2023-04-10T01:36:49;100311.41;;;20.65;100.00
49377;BME280;35253;34.688;33.040;2023-04-10T01:39:20;100296.16;;;20.56;100.00
49377;BME280;35253;34.688;33.040;2023-04-10T01:41:51;100289.03;;;20.55;100.00
49377;BME280;35253;34.688;33.040;2023-04-10T01:44:23;100304.44;;;20.54;100.00
49377;BME280;35253;34.688;33.040;2023-04-10T01:46:50;100307.31;;;20.53;100.00
49377;BME280;35253;34.688;33.040;2023-04-10T01:49:17;100313.31;;;20.31;100.00
49377;BME280;35253;34.688;33.040;2023-04-10T01:54:19;100299.47;;;20.42;100.00
49377;BME280;35253;34.688;33.040;2023-04-10T01:56:45;100302.88;;;20.44;100.00
49377;BME280;35253;34.688;33.040;2023-04-10T01:59:11;100306.72;;;20.33;100.00
49377;BME280;35253;34.688;33.040;2023-04-10T02:01:37;100302.19;;;20.42;100.00
49377;BME280;35253;34.688;33.040;2023-04-10T02:04:02;100296.94;;;20.40;100.00
49377;BME280;35253;34.688;33.040;2023-04-10T02:06:44;100302.16;;;20.34;100.00
49377;BME280;35253;34.688;33.040;2023-04-10T02:09:53;100308.56;;;20.33;100.00
49377;BME280;35253;34.688;33.040;2023-04-10T02:12:25;100302.06;;;20.25;100.00
49377;BME280;35253;34.688;33.040;2023-04-10T02:14:54;100310.72;;;20.29;100.00
49377;BME280;35253;34.688;33.040;2023-04-10T02:17:26;100329.09;;;20.43;100.00
49377;BME280;35253;34.688;33.040;2023-04-10T02:19:54;100327.28;;;20.52;100.00
49377;BME280;35253;34.688;33.040;2023-04-10T02:22:22;100321.00;;;20.51;100.00
49377;BME280;35253;34.688;33.040;2023-04-10T02:24:50;100309.69;;;20.56;100.00
49377;BME280;35253;34.688;33.040;2023-04-10T02:27:35;100313.41;;;20.55;100.00
49377;BME280;35253;34.688;33.040;2023-04-10T02:30:01;100326.31;;;20.61;100.00
49377;BME280;35253;34.688;33.040;2023-04-10T02:32:28;100317.47;;;20.59;100.00
49377;BME280;35253;34.688;33.040;2023-04-10T02:34:54;100308.69;;;20.57;100.00
49377;BME280;35253;34.688;33.040;2023-04-10T02:37:21;100307.97;;;20.47;100.00
49377;BME280;35253;34.688;33.040;2023-04-10T02:39:46;100304.59;;;20.53;100.00
49377;BME280;35253;34.688;33.040;2023-04-10T02:42:12;100300.84;;;20.46;100.00
49377;BME280;35253;34.688;33.040;2023-04-10T02:44:38;100312.03;;;20.51;100.00
49377;BME280;35253;34.688;33.040;2023-04-10T02:47:04;100309.38;;;20.67;100.00
49377;BME280;35253;34.688;33.040;2023-04-10T02:49:33;100311.75;;;20.62;100.00
49377;BME280;35253;34.688;33.040;2023-04-10T02:51:59;100303.25;;;20.57;100.00
49377;BME280;35253;34.688;33.040;2023-04-10T02:54:25;100303.41;;;20.55;100.00
49377;BME280;35253;34.688;33.040;2023-04-10T02:56:51;100299.13;;;20.45;100.00
49377;BME280;35253;34.688;33.040;2023-04-10T02:59:16;100289.69;;;20.49;100.00
49377;BME280;35253;34.688;33.040;2023-04-10T03:01:42;100276.94;;;20.41;100.00
49377;BME280;35253;34.688;33.040;2023-04-10T03:04:08;100273.06;;;20.36;100.00
49377;BME280;35253;34.688;33.040;2023-04-10T03:06:34;100267.38;;;20.21;100.00
49377;BME280;35253;34.688;33.040;2023-04-10T03:09:00;100257.88;;;20.17;100.00
49377;BME280;35253;34.688;33.040;2023-04-10T03:11:25;100245.88;;;20.19;100.00
49377;BME280;35253;34.688;33.040;2023-04-10T03:13:51;100237.75;;;20.19;100.00
49377;BME280;35253;34.688;33.040;2023-04-10T03:16:17;100226.56;;;20.14;100.00
49377;BME280;35253;34.688;33.040;2023-04-10T03:18:43;100230.63;;;20.18;100.00
49377;BME280;35253;34.688;33.040;2023-04-10T03:21:09;100225.56;;;20.23;100.00
49377;BME280;35253;34.688;33.040;2023-04-10T03:23:35;100231.81;;;20.16;100.00
49377;BME280;35253;34.688;33.040;2023-04-10T03:26:01;100230.13;;;20.15;100.00
49377;BME280;35253;34.688;33.040;2023-04-10T03:28:29;100227.41;;;20.15;100.00
49377;BME280;35253;34.688;33.040;2023-04-10T03:30:55;100233.16;;;20.12;100.00
49377;BME280;35253;34.688;33.040;2023-04-10T03:33:21;100241.13;;;20.13;100.00
49377;BME280;35253;34.688;33.040;2023-04-10T03:35:47;100249.56;;;20.18;100.00
49377;BME280;35253;34.688;33.040;2023-04-10T03:38:13;100279.41;;;20.27;100.00
49377;BME280;35253;34.688;33.040;2023-04-10T03:40:38;100282.13;;;20.27;100.00
49377;BME280;35253;34.688;33.040;2023-04-10T03:43:04;100273.44;;;20.23;100.00
49377;BME280;35253;34.688;33.040;2023-04-10T03:45:30;100263.47;;;20.23;100.00
49377;BME280;35253;34.688;33.040;2023-04-10T03:47:56;100259.44;;;20.27;100.00
49377;BME280;35253;34.688;33.040;2023-04-10T03:50:21;100250.50;;;20.27;100.00
49377;BME280;35253;34.688;33.040;2023-04-10T03:52:47;100260.53;;;20.35;100.00
49377;BME280;35253;34.688;33.040;2023-04-10T03:55:14;100259.19;;;20.39;100.00
49377;BME280;35253;34.688;33.040;2023-04-10T03:57:46;100267.66;;;20.36;100.00
49377;BME280;35253;34.688;33.040;2023-04-10T04:00:13;100260.56;;;20.43;100.00
49377;BME280;35253;34.688;33.040;2023-04-10T04:02:40;100253.44;;;20.42;100.00
49377;BME280;35253;34.688;33.040;2023-04-10T04:05:06;100273.13;;;20.52;100.00
49377;BME280;35253;34.688;33.040;2023-04-10T04:07:32;100265.66;;;20.54;100.00
49377;BME280;35253;34.688;33.040;2023-04-10T04:09:58;100273.13;;;20.60;100.00
49377;BME280;35253;34.688;33.040;2023-04-10T04:12:25;100293.78;;;20.53;100.00
49377;BME280;35253;34.688;33.040;2023-04-10T04:14:51;100300.34;;;20.16;100.00
49377;BME280;35253;34.688;33.040;2023-04-10T04:17:17;100293.63;;;20.29;100.00
49377;BME280;35253;34.688;33.040;2023-04-10T04:19:43;100278.13;;;20.39;100.00
49377;BME280;35253;34.688;33.040;2023-04-10T04:22:10;100269.66;;;20.34;100.00
49377;BME280;35253;34.688;33.040;2023-04-10T04:24:36;100280.34;;;20.43;100.00
49377;BME280;35253;34.688;33.040;2023-04-10T04:27:01;100287.81;;;20.15;100.00
49377;BME280;35253;34.688;33.040;2023-04-10T04:29:27;100288.31;;;20.19;100.00
49377;BME280;35253;34.688;33.040;2023-04-10T04:31:53;100296.53;;;20.01;100.00
49377;BME280;35253;34.688;33.040;2023-04-10T04:34:19;100286.59;;;19.84;100.00
49377;BME280;35253;34.688;33.040;2023-04-10T04:36:44;100290.97;;;19.77;100.00
49377;BME280;35253;34.688;33.040;2023-04-10T04:39:10;100288.34;;;19.93;100.00
49377;BME280;35253;34.688;33.040;2023-04-10T04:41:36;100292.94;;;20.27;100.00
49377;BME280;35253;34.688;33.040;2023-04-10T04:44:01;100289.38;;;20.52;100.00
49377;BME280;35253;34.688;33.040;2023-04-10T04:46:27;100272.78;;;20.55;100.00
49377;BME280;35253;34.688;33.040;2023-04-10T04:48:53;100285.03;;;20.75;100.00
49377;BME280;35253;34.688;33.040;2023-04-10T04:51:19;100289.31;;;21.02;100.00
49377;BME280;35253;34.688;33.040;2023-04-10T04:53:44;100293.84;;;20.85;100.00
49377;BME280;35253;34.688;33.040;2023-04-10T04:56:10;100307.41;;;20.85;100.00
49377;BME280;35253;34.688;33.040;2023-04-10T04:58:36;100293.59;;;21.12;100.00
49377;BME280;35253;34.688;33.040;2023-04-10T05:01:02;100275.16;;;21.40;100.00
49377;BME280;35253;34.688;33.040;2023-04-10T05:03:28;100251.91;;;21.62;100.00
49377;BME280;35253;34.688;33.040;2023-04-10T05:05:54;100267.28;;;21.86;100.00
49377;BME280;35253;34.688;33.040;2023-04-10T05:08:20;100274.91;;;22.07;100.00
49377;BME280;35253;34.688;33.040;2023-04-10T05:10:47;100262.59;;;22.27;100.00
49377;BME280;35253;34.688;33.040;2023-04-10T05:13:12;100285.59;;;22.55;100.00
49377;BME280;35253;34.688;33.040;2023-04-10T05:15:40;100279.84;;;22.50;100.00
49377;BME280;35253;34.688;33.040;2023-04-10T05:18:05;100265.44;;;22.41;100.00
49377;BME280;35253;34.688;33.040;2023-04-10T05:20:33;100266.56;;;22.55;100.00
49377;BME280;35253;34.688;33.040;2023-04-10T05:23:00;100284.25;;;22.82;100.00
49377;BME280;35253;34.688;33.040;2023-04-10T05:25:26;100287.03;;;22.74;100.00
49377;BME280;35253;34.688;33.040;2023-04-10T05:27:51;100264.81;;;22.70;100.00
49377;BME280;35253;34.688;33.040;2023-04-10T05:30:17;100269.47;;;22.54;100.00
49377;BME280;35253;34.688;33.040;2023-04-10T05:32:43;100272.53;;;22.42;100.00
49377;BME280;35253;34.688;33.040;2023-04-10T05:35:10;100280.44;;;22.21;100.00
49377;BME280;35253;34.688;33.040;2023-04-10T05:37:36;100288.09;;;22.18;100.00
49377;BME280;35253;34.688;33.040;2023-04-10T05:40:02;100289.44;;;22.22;100.00
49377;BME280;35253;34.688;33.040;2023-04-10T05:42:27;100289.59;;;22.28;100.00
49377;BME280;35253;34.688;33.040;2023-04-10T05:44:53;100288.03;;;22.42;100.00
49377;BME280;35253;34.688;33.040;2023-04-10T05:47:19;100261.91;;;22.33;100.00
49377;BME280;35253;34.688;33.040;2023-04-10T05:49:45;100236.09;;;22.37;100.00
49377;BME280;35253;34.688;33.040;2023-04-10T05:52:10;100236.75;;;22.39;100.00
49377;BME280;35253;34.688;33.040;2023-04-10T05:54:36;100255.75;;;22.39;100.00
49377;BME280;35253;34.688;33.040;2023-04-10T05:57:02;100262.97;;;22.24;100.00
49377;BME280;35253;34.688;33.040;2023-04-10T05:59:27;100247.44;;;22.40;100.00
49377;BME280;35253;34.688;33.040;2023-04-10T06:01:53;100238.59;;;22.46;100.00
49377;BME280;35253;34.688;33.040;2023-04-10T06:04:18;100239.69;;;22.60;100.00
49377;BME280;35253;34.688;33.040;2023-04-10T06:06:45;100234.53;;;22.73;100.00
49377;BME280;35253;34.688;33.040;2023-04-10T06:09:11;100226.38;;;22.73;100.00
49377;BME280;35253;34.688;33.040;2023-04-10T06:11:37;100225.31;;;22.82;100.00
49377;BME280;35253;34.688;33.040;2023-04-10T06:14:02;100213.34;;;22.91;100.00
49377;BME280;35253;34.688;33.040;2023-04-10T06:16:28;100172.41;;;22.93;100.00
49377;BME280;35253;34.688;33.040;2023-04-10T06:18:54;100188.47;;;23.03;100.00
49377;BME280;35253;34.688;33.040;2023-04-10T06:21:20;100228.72;;;23.07;100.00
49377;BME280;35253;34.688;33.040;2023-04-10T06:23:45;100247.00;;;22.90;100.00
49377;BME280;35253;34.688;33.040;2023-04-10T06:26:11;100227.88;;;23.07;100.00
49377;BME280;35253;34.688;33.040;2023-04-10T06:28:37;100225.94;;;23.15;100.00
49377;BME280;35253;34.688;33.040;2023-04-10T06:31:05;100233.53;;;23.20;100.00
49377;BME280;35253;34.688;33.040;2023-04-10T06:33:31;100238.66;;;23.38;100.00
49377;BME280;35253;34.688;33.040;2023-04-10T06:36:00;100227.09;;;23.58;100.00
49377;BME280;35253;34.688;33.040;2023-04-10T06:38:26;100207.00;;;23.74;100.00
49377;BME280;35253;34.688;33.040;2023-04-10T06:40:51;100204.41;;;23.80;100.00
49377;BME280;35253;34.688;33.040;2023-04-10T06:43:17;100210.88;;;23.79;100.00
49377;BME280;35253;34.688;33.040;2023-04-10T06:45:43;100225.25;;;23.73;100.00
49377;BME280;35253;34.688;33.040;2023-04-10T06:48:09;100231.25;;;23.69;100.00
49377;BME280;35253;34.688;33.040;2023-04-10T06:50:35;100236.88;;;23.67;100.00
49377;BME280;35253;34.688;33.040;2023-04-10T06:53:01;100234.44;;;23.72;100.00
49377;BME280;35253;34.688;33.040;2023-04-10T06:55:26;100232.09;;;23.69;100.00
49377;BME280;35253;34.688;33.040;2023-04-10T06:57:52;100237.50;;;23.55;100.00
49377;BME280;35253;34.688;33.040;2023-04-10T07:00:19;100242.22;;;23.38;100.00
49377;BME280;35253;34.688;33.040;2023-04-10T07:02:45;100238.78;;;23.44;100.00
49377;BME280;35253;34.688;33.040;2023-04-10T07:05:12;100245.41;;;23.42;100.00
49377;BME280;35253;34.688;33.040;2023-04-10T07:07:38;100219.22;;;23.41;100.00
49377;BME280;35253;34.688;33.040;2023-04-10T07:10:04;100210.31;;;23.32;100.00
49377;BME280;35253;34.688;33.040;2023-04-10T07:12:30;100224.94;;;23.31;100.00
49377;BME280;35253;34.688;33.040;2023-04-10T07:14:56;100217.88;;;23.22;100.00
49377;BME280;35253;34.688;33.040;2023-04-10T07:17:21;100220.09;;;23.18;100.00
49377;BME280;35253;34.688;33.040;2023-04-10T07:19:47;100214.66;;;23.18;100.00
49377;BME280;35253;34.688;33.040;2023-04-10T07:22:13;100225.69;;;23.25;100.00
49377;BME280;35253;34.688;33.040;2023-04-10T07:24:40;100226.56;;;23.40;100.00
49377;BME280;35253;34.688;33.040;2023-04-10T07:27:05;100236.38;;;23.49;100.00
49377;BME280;35253;34.688;33.040;2023-04-10T07:29:31;100244.75;;;23.62;100.00
49377;BME280;35253;34.688;33.040;2023-04-10T07:31:57;100238.34;;;23.55;100.00
49377;BME280;35253;34.688;33.040;2023-04-10T07:34:22;100237.81;;;23.74;100.00
49377;BME280;35253;34.688;33.040;2023-04-10T07:36:48;100234.81;;;23.69;100.00
49377;BME280;35253;34.688;33.040;2023-04-10T07:39:14;100229.00;;;23.72;100.00
49377;BME280;35253;34.688;33.040;2023-04-10T07:41:40;100227.88;;;23.82;100.00
49377;BME280;35253;34.688;33.040;2023-04-10T07:44:05;100235.25;;;23.58;100.00
49377;BME280;35253;34.688;33.040;2023-04-10T07:46:31;100246.63;;;23.76;100.00
49377;BME280;35253;34.688;33.040;2023-04-10T07:48:57;100268.41;;;23.76;100.00
49377;BME280;35253;34.688;33.040;2023-04-10T07:51:22;100266.06;;;23.73;100.00
49377;BME280;35253;34.688;33.040;2023-04-10T07:53:48;100253.19;;;23.67;100.00
49377;BME280;35253;34.688;33.040;2023-04-10T07:56:15;100255.44;;;23.78;100.00
49377;BME280;35253;34.688;33.040;2023-04-10T07:58:41;100244.22;;;23.82;100.00
49377;BME280;35253;34.688;33.040;2023-04-10T08:01:07;100233.22;;;23.90;100.00
49377;BME280;35253;34.688;33.040;2023-04-10T08:03:38;100213.88;;;23.99;100.00
49377;BME280;35253;34.688;33.040;2023-04-10T08:06:04;100204.97;;;23.91;100.00
49377;BME280;35253;34.688;33.040;2023-04-10T08:08:34;100203.28;;;23.90;100.00
49377;BME280;35253;34.688;33.040;2023-04-10T08:11:01;100222.78;;;23.78;100.00
49377;BME280;35253;34.688;33.040;2023-04-10T08:13:27;100222.22;;;23.83;100.00
49377;BME280;35253;34.688;33.040;2023-04-10T08:15:52;100229.19;;;23.86;100.00
49377;BME280;35253;34.688;33.040;2023-04-10T08:18:18;100231.16;;;23.77;100.00
49377;BME280;35253;34.688;33.040;2023-04-10T08:20:43;100220.72;;;23.66;100.00
49377;BME280;35253;34.688;33.040;2023-04-10T08:23:09;100209.44;;;23.54;100.00
49377;BME280;35253;34.688;33.040;2023-04-10T08:25:35;100220.78;;;23.58;100.00
49377;BME280;35253;34.688;33.040;2023-04-10T08:28:00;100220.16;;;23.70;100.00
49377;BME280;35253;34.688;33.040;2023-04-10T08:30:26;100231.81;;;23.94;100.00
49377;BME280;35253;34.688;33.040;2023-04-10T08:32:52;100233.31;;;24.11;100.00
49377;BME280;35253;34.688;33.040;2023-04-10T08:35:18;100246.09;;;24.10;100.00
49377;BME280;35253;34.688;33.040;2023-04-10T08:37:43;100258.31;;;24.00;100.00
49377;BME280;35253;34.688;33.040;2023-04-10T08:40:09;100257.06;;;23.73;100.00
49377;BME280;35253;34.688;33.040;2023-04-10T08:42:35;100256.81;;;23.45;100.00
49377;BME280;35253;34.688;33.040;2023-04-10T08:45:02;100251.03;;;23.17;100.00
49377;BME280;35253;34.688;33.040;2023-04-10T08:47:28;100267.53;;;22.62;100.00
49377;BME280;35253;34.688;33.040;2023-04-10T08:50:00;100267.06;;;22.20;100.00
49377;BME280;35253;34.688;33.040;2023-04-10T08:52:33;100272.38;;;21.97;100.00
49377;BME280;35253;34.688;33.040;2023-04-10T08:55:01;100237.94;;;21.89;100.00
49377;BME280;35253;34.688;33.040;2023-04-10T08:57:30;100270.00;;;22.02;100.00
49377;BME280;35253;34.688;33.040;2023-04-10T08:59:57;100302.34;;;22.12;100.00
49377;BME280;35253;34.688;33.040;2023-04-10T09:02:23;100278.78;;;22.20;100.00
49377;BME280;35253;34.688;33.040;2023-04-10T09:04:51;100299.91;;;22.41;100.00
49377;BME280;35253;34.688;33.040;2023-04-10T09:07:18;100317.19;;;22.48;100.00
49377;BME280;35253;34.688;33.040;2023-04-10T09:09:44;100335.59;;;22.22;100.00
49377;BME280;35253;34.688;33.040;2023-04-10T09:12:11;100356.00;;;22.18;100.00
49377;BME280;35253;34.688;33.040;2023-04-10T09:14:40;100366.50;;;22.13;100.00
49377;BME280;35253;34.688;33.040;2023-04-10T09:17:23;100375.34;;;22.23;100.00
49377;BME280;35253;34.688;33.040;2023-04-10T09:19:53;100379.06;;;22.22;100.00
49377;BME280;35253;34.688;33.040;2023-04-10T09:22:33;100320.97;;;22.31;100.00
49377;BME280;35253;34.688;33.040;2023-04-10T09:25:01;100271.09;;;22.32;100.00
49377;BME280;35253;34.688;33.040;2023-04-10T09:29:53;100327.47;;;22.22;100.00
49377;BME280;35253;34.688;33.040;2023-04-10T09:32:37;100331.50;;;22.42;100.00
49377;BME280;35253;34.688;33.040;2023-04-10T09:35:03;100333.13;;;22.59;100.00
49377;BME280;35253;34.688;33.040;2023-04-10T09:37:34;100325.63;;;22.69;100.00
49377;BME280;35253;34.688;33.040;2023-04-10T09:40:01;100283.47;;;22.73;100.00
49377;BME280;35253;34.688;33.040;2023-04-10T09:42:33;100277.03;;;22.97;100.00
49377;BME280;35253;34.688;33.040;2023-04-10T09:45:02;100276.31;;;23.26;100.00
49377;BME280;35253;34.688;33.040;2023-04-10T09:47:28;100254.50;;;23.34;100.00
49377;BME280;35253;34.688;33.040;2023-04-10T09:49:59;100257.19;;;23.57;100.00
49377;BME280;35253;34.688;33.040;2023-04-10T09:52:27;100256.13;;;23.80;100.00
49377;BME280;35253;34.688;33.040;2023-04-10T09:54:57;100239.81;;;24.24;100.00
49377;BME280;35253;34.688;33.040;2023-04-10T09:57:26;100233.31;;;24.11;100.00
49377;BME280;35253;34.688;33.040;2023-04-10T09:59:53;100249.84;;;23.95;100.00
49377;BME280;35253;34.688;33.040;2023-04-10T10:02:21;100236.59;;;24.06;100.00
49377;BME280;35253;34.688;33.040;2023-04-10T10:04:48;100234.44;;;24.31;100.00
49377;BME280;35253;34.688;33.040;2023-04-10T10:07:16;100223.72;;;24.44;100.00
49377;BME280;35253;34.688;33.040;2023-04-10T10:09:43;100191.69;;;24.32;100.00
49377;BME280;35253;34.688;33.040;2023-04-10T10:12:11;100167.16;;;24.46;100.00
49377;BME280;35253;34.688;33.040;2023-04-10T10:14:46;100168.19;;;24.45;100.00
49377;BME280;35253;34.688;33.040;2023-04-10T10:17:14;100177.06;;;24.90;100.00
49377;BME280;35253;34.688;33.040;2023-04-10T10:20:01;100166.09;;;25.04;100.00
49377;BME280;35253;34.688;33.040;2023-04-10T10:22:29;100154.84;;;25.14;100.00
49377;BME280;35253;34.688;33.040;2023-04-10T10:24:55;100157.72;;;25.34;100.00
49377;BME280;35253;34.688;33.040;2023-04-10T10:27:23;100145.44;;;25.44;100.00
49377;BME280;35253;34.688;33.040;2023-04-10T10:29:53;100146.41;;;25.65;100.00
49377;BME280;35253;34.688;33.040;2023-04-10T10:32:20;100137.44;;;25.77;100.00
49377;BME280;35253;34.688;33.040;2023-04-10T10:34:47;100135.69;;;25.97;100.00
49377;BME280;35253;34.688;33.040;2023-04-10T10:37:18;100143.47;;;26.07;100.00
49377;BME280;35253;34.688;33.040;2023-04-10T10:43:04;100162.94;;;25.91;100.00
49377;BME280;35253;34.688;33.040;2023-04-10T10:45:40;100181.03;;;25.36;100.00
49377;BME280;35253;34.688;33.040;2023-04-10T10:48:07;100185.66;;;24.87;100.00
49377;BME280;35253;34.688;33.040;2023-04-10T10:50:52;100191.78;;;24.38;100.00
49377;BME280;35253;34.688;33.040;2023-04-10T10:53:31;100155.34;;;24.39;100.00
49377;BME280;35253;34.688;33.040;2023-04-10T10:55:58;100139.34;;;24.36;100.00
49377;BME280;35253;34.688;33.040;2023-04-10T10:58:52;100142.44;;;24.48;100.00
49377;BME280;35253;34.688;33.040;2023-04-10T11:01:27;100156.59;;;24.79;100.00
49377;BME280;35253;34.688;33.040;2023-04-10T11:03:53;100156.19;;;25.25;100.00
49377;BME280;35253;34.688;33.040;2023-04-10T11:06:21;100152.63;;;25.03;100.00
49377;BME280;35253;34.688;33.040;2023-04-10T11:09:06;100137.31;;;24.59;100.00
49377;BME280;35253;34.688;33.040;2023-04-10T11:11:57;100128.50;;;24.79;100.00
49377;BME280;35253;34.688;33.040;2023-04-10T11:14:23;100116.53;;;24.58;100.00
49377;BME280;35253;34.688;33.040;2023-04-10T11:16:49;100106.28;;;24.39;100.00
49377;BME280;35253;34.688;33.040;2023-04-10T11:19:15;100103.94;;;24.36;100.00
49377;BME280;35253;34.688;33.040;2023-04-10T11:22:01;100091.97;;;24.80;100.00
49377;BME280;35253;34.688;33.040;2023-04-10T11:24:29;100099.94;;;24.75;100.00
49377;BME280;35253;34.688;33.040;2023-04-10T11:26:55;100098.47;;;24.57;100.00
49377;BME280;35253;34.688;33.040;2023-04-10T11:31:57;100095.84;;;24.43;100.00
49377;BME280;35253;34.688;33.040;2023-04-10T11:34:23;100098.84;;;24.48;100.00
49377;BME280;35253;34.688;33.040;2023-04-10T11:36:51;100095.38;;;24.82;100.00
49377;BME280;35253;34.688;33.040;2023-04-10T11:39:18;100087.59;;;24.36;100.00
49377;BME280;35253;34.688;33.040;2023-04-10T11:41:47;100075.91;;;24.63;100.00
49377;BME280;35253;34.688;33.040;2023-04-10T11:44:25;100081.88;;;24.74;100.00
49377;BME280;35253;34.688;33.040;2023-04-10T11:46:52;100074.31;;;24.76;100.00
49377;BME280;35253;34.688;33.040;2023-04-10T11:51:46;100070.72;;;24.90;100.00
49377;BME280;35253;34.688;33.040;2023-04-10T11:54:15;100062.66;;;24.82;100.00
49377;BME280;35253;34.688;33.040;2023-04-10T11:56:42;100074.81;;;24.79;100.00
49377;BME280;35253;34.688;33.040;2023-04-10T11:59:09;100067.09;;;24.61;100.00
49377;BME280;35253;34.688;33.040;2023-04-10T12:01:40;100071.63;;;24.54;100.00
49377;BME280;35253;34.688;33.040;2023-04-10T12:04:16;100068.63;;;24.49;100.00
49377;BME280;35253;34.688;33.040;2023-04-10T12:06:46;100069.44;;;24.43;100.00
49377;BME280;35253;34.688;33.040;2023-04-10T12:09:14;100066.72;;;24.22;100.00
49377;BME280;35253;34.688;33.040;2023-04-10T12:12:07;100060.03;;;24.24;100.00
49377;BME280;35253;34.688;33.040;2023-04-10T12:14:35;100063.16;;;24.07;100.00
49377;BME280;35253;34.688;33.040;2023-04-10T12:17:04;100048.88;;;24.05;100.00
49377;BME280;35253;34.688;33.040;2023-04-10T12:19:32;100039.59;;;23.63;100.00
49377;BME280;35253;34.688;33.040;2023-04-10T12:21:58;100044.28;;;23.69;100.00
49377;BME280;35253;34.688;33.040;2023-04-10T12:24:43;100053.66;;;23.52;100.00
49377;BME280;35253;34.688;33.040;2023-04-10T12:27:25;100063.81;;;23.44;100.00
49377;BME280;35253;34.688;33.040;2023-04-10T12:29:56;100047.59;;;23.50;100.00
49377;BME280;35253;34.688;33.040;2023-04-10T12:32:23;100060.63;;;23.69;100.00
49377;BME280;35253;34.688;33.040;2023-04-10T12:34:55;100049.41;;;23.79;100.00
49377;BME280;35253;34.688;33.040;2023-04-10T12:37:47;100047.09;;;23.32;100.00
49377;BME280;35253;34.688;33.040;2023-04-10T12:40:13;100046.16;;;23.54;100.00
49377;BME280;35253;34.688;33.040;2023-04-10T12:42:39;100049.34;;;23.72;100.00
49377;BME280;35253;34.688;33.040;2023-04-10T12:45:09;100054.72;;;23.87;100.00
49377;BME280;35253;34.688;33.040;2023-04-10T12:47:48;100057.69;;;24.07;100.00
49377;BME280;35253;34.688;33.040;2023-04-10T12:50:17;100052.59;;;24.40;100.00
49377;BME280;35253;34.688;33.040;2023-04-10T12:52:45;100037.38;;;24.24;100.00
49377;BME280;35253;34.688;33.040;2023-04-10T12:55:15;100043.09;;;24.50;100.00
49377;BME280;35253;34.688;33.040;2023-04-10T12:57:43;100040.13;;;24.73;100.00
49377;BME280;35253;34.688;33.040;2023-04-10T13:00:12;100031.69;;;24.89;100.00
49377;BME280;35253;34.688;33.040;2023-04-10T13:02:39;100028.53;;;24.64;100.00